createdAt,value
2022-08-29T00:01:02.316Z,100.00
2022-08-29T00:03:33.446Z,100.00
2022-08-29T00:06:01.502Z,100.00
2022-08-29T00:08:29.585Z,100.00
2022-08-29T00:10:57.649Z,100.00
2022-08-29T00:13:27.558Z,100.00
2022-08-29T00:15:55.761Z,100.00
2022-08-29T00:18:23.845Z,100.00
2022-08-29T00:20:52.162Z,100.00
2022-08-29T00:23:20.264Z,100.00
2022-08-29T00:25:48.297Z,100.00
2022-08-29T00:28:16.654Z,100.00
2022-08-29T00:30:46.229Z,100.00
2022-08-29T00:33:14.304Z,100.00
2022-08-29T00:35:43.569Z,100.00
2022-08-29T00:38:12.681Z,100.00
2022-08-29T00:40:42.228Z,100.00
2022-08-29T00:43:13.463Z,100.00
2022-08-29T00:45:48.341Z,100.00
2022-08-29T00:48:16.753Z,100.00
2022-08-29T00:50:46.114Z,100.00
2022-08-29T00:53:17.107Z,100.00
2022-08-29T00:55:50.543Z,100.00
2022-08-29T00:58:25.770Z,100.00
2022-08-29T01:00:55.689Z,100.00
2022-08-29T01:03:23.841Z,100.00
2022-08-29T01:05:51.935Z,100.00
2022-08-29T01:08:20.618Z,100.00
2022-08-29T01:11:08.096Z,100.00
2022-08-29T01:13:38.801Z,100.00
2022-08-29T01:16:08.633Z,100.00
2022-08-29T01:18:37.370Z,100.00
2022-08-29T01:21:09.268Z,100.00
2022-08-29T01:23:42.187Z,100.00
2022-08-29T01:26:12.437Z,100.00
2022-08-29T01:28:42.019Z,100.00
2022-08-29T01:31:11.909Z,100.00
2022-08-29T01:33:42.615Z,100.00
2022-08-29T01:36:11.869Z,100.00
2022-08-29T01:38:39.897Z,100.00
2022-08-29T01:41:08.057Z,100.00
2022-08-29T01:43:41.546Z,100.00
2022-08-29T01:46:12.077Z,100.00
2022-08-29T01:48:41.447Z,100.00
2022-08-29T01:51:09.990Z,100.00
2022-08-29T01:53:40.246Z,100.00
2022-08-29T01:56:13.553Z,100.00
2022-08-29T01:58:44.772Z,100.00
2022-08-29T02:01:12.943Z,100.00
2022-08-29T02:03:41.950Z,100.00
2022-08-29T02:06:11.371Z,100.00
2022-08-29T02:08:40.579Z,100.00
2022-08-29T02:11:10.288Z,100.00
2022-08-29T02:13:41.115Z,100.00
2022-08-29T02:16:14.925Z,100.00
2022-08-29T02:18:43.286Z,100.00
2022-08-29T02:21:16.990Z,100.00
2022-08-29T02:23:46.993Z,100.00
2022-08-29T02:26:16.021Z,100.00
2022-08-29T02:28:50.828Z,100.00
2022-08-29T02:31:21.376Z,100.00
2022-08-29T02:33:51.568Z,100.00
2022-08-29T02:36:20.426Z,100.00
2022-08-29T02:38:49.879Z,100.00
2022-08-29T02:41:18.393Z,100.00
2022-08-29T02:43:49.440Z,100.00
2022-08-29T02:46:21.312Z,100.00
2022-08-29T02:49:00.026Z,100.00
2022-08-29T02:51:31.136Z,100.00
2022-08-29T02:53:59.264Z,100.00
2022-08-29T02:56:27.827Z,100.00
2022-08-29T02:58:56.105Z,100.00
2022-08-29T03:01:26.120Z,100.00
2022-08-29T03:03:54.257Z,100.00
2022-08-29T03:06:23.404Z,100.00
2022-08-29T03:08:54.335Z,100.00
2022-08-29T03:11:23.386Z,100.00
2022-08-29T03:13:52.008Z,100.00
2022-08-29T03:16:29.120Z,100.00
2022-08-29T03:18:57.626Z,100.00
2022-08-29T03:21:27.051Z,100.00
2022-08-29T03:23:56.449Z,100.00
2022-08-29T03:26:25.417Z,100.00
2022-08-29T03:28:53.707Z,100.00
2022-08-29T03:31:22.180Z,100.00
2022-08-29T03:33:53.122Z,100.00
2022-08-29T03:36:22.057Z,100.00
2022-08-29T03:38:50.294Z,100.00
2022-08-29T03:41:23.009Z,100.00
2022-08-29T03:43:51.468Z,100.00
2022-08-29T03:46:21.168Z,100.00
2022-08-29T03:48:50.917Z,100.00
2022-08-29T03:51:21.104Z,100.00
2022-08-29T03:53:51.601Z,100.00
2022-08-29T03:56:20.677Z,100.00
2022-08-29T03:58:53.356Z,100.00
2022-08-29T04:01:24.552Z,100.00
2022-08-29T04:03:54.577Z,100.00
2022-08-29T04:06:25.615Z,100.00
2022-08-29T04:08:54.293Z,100.00
2022-08-29T04:11:24.003Z,100.00
2022-08-29T04:13:53.176Z,100.00
2022-08-29T04:16:22.319Z,100.00
2022-08-29T04:18:52.815Z,100.00
2022-08-29T04:21:22.419Z,100.00
2022-08-29T04:23:50.961Z,100.00
2022-08-29T04:26:36.388Z,100.00
2022-08-29T04:29:06.920Z,100.00
2022-08-29T04:31:35.655Z,100.00
2022-08-29T04:34:03.774Z,100.00
2022-08-29T04:36:36.727Z,100.00
2022-08-29T04:39:04.919Z,100.00
2022-08-29T04:41:33.657Z,100.00
2022-08-29T04:44:02.370Z,100.00
2022-08-29T04:46:31.619Z,100.00
2022-08-29T04:49:04.218Z,100.00
2022-08-29T04:51:45.698Z,100.00
2022-08-29T04:54:24.789Z,100.00
2022-08-29T04:56:57.263Z,100.00
2022-08-29T04:59:27.365Z,100.00
2022-08-29T05:01:56.729Z,100.00
2022-08-29T05:04:25.257Z,100.00
2022-08-29T05:06:54.829Z,100.00
2022-08-29T05:09:24.168Z,100.00
2022-08-29T05:11:53.701Z,100.00
2022-08-29T05:14:21.955Z,100.00
2022-08-29T05:16:50.004Z,100.00
2022-08-29T05:19:19.593Z,100.00
2022-08-29T05:21:49.469Z,100.00
2022-08-29T05:24:19.006Z,100.00
2022-08-29T05:26:47.782Z,100.00
2022-08-29T05:29:16.910Z,100.00
2022-08-29T05:31:46.274Z,100.00
2022-08-29T05:34:34.618Z,100.00
2022-08-29T05:37:04.291Z,100.00
2022-08-29T05:39:36.593Z,100.00
2022-08-29T05:42:07.411Z,100.00
2022-08-29T05:44:36.622Z,100.00
2022-08-29T05:47:05.072Z,100.00
2022-08-29T05:49:33.142Z,100.00
2022-08-29T05:52:01.544Z,100.00
2022-08-29T05:54:30.308Z,100.00
2022-08-29T05:57:00.407Z,100.00
2022-08-29T05:59:28.728Z,100.00
2022-08-29T06:01:56.909Z,100.00
2022-08-29T06:04:24.945Z,100.00
2022-08-29T06:06:53.328Z,100.00
2022-08-29T06:09:22.107Z,100.00
2022-08-29T06:11:53.318Z,100.00
2022-08-29T06:14:23.194Z,100.00
2022-08-29T06:16:51.361Z,100.00
2022-08-29T06:19:19.474Z,100.00
2022-08-29T06:21:47.884Z,100.00
2022-08-29T06:24:15.976Z,100.00
2022-08-29T06:26:44.606Z,100.00
2022-08-29T06:29:14.791Z,100.00
2022-08-29T06:31:44.684Z,100.00
2022-08-29T06:34:12.837Z,100.00
2022-08-29T06:36:40.936Z,100.00
2022-08-29T06:39:10.655Z,100.00
2022-08-29T06:41:39.646Z,100.00
2022-08-29T06:44:08.239Z,100.00
2022-08-29T06:46:37.499Z,100.00
2022-08-29T06:49:08.153Z,100.00
2022-08-29T06:51:36.921Z,100.00
2022-08-29T06:54:07.329Z,100.00
2022-08-29T06:56:37.066Z,100.00
2022-08-29T06:59:05.655Z,100.00
2022-08-29T07:01:34.145Z,100.00
2022-08-29T07:04:04.137Z,100.00
2022-08-29T07:06:35.392Z,100.00
2022-08-29T07:09:03.737Z,100.00
2022-08-29T07:11:35.619Z,100.00
2022-08-29T07:14:09.638Z,100.00
2022-08-29T07:16:38.814Z,100.00
2022-08-29T07:19:10.200Z,100.00
2022-08-29T07:21:40.592Z,100.00
2022-08-29T07:24:10.380Z,100.00
2022-08-29T07:26:42.792Z,100.00
2022-08-29T07:29:14.456Z,100.00
2022-08-29T07:31:43.329Z,100.00
2022-08-29T07:34:13.370Z,100.00
2022-08-29T07:36:44.155Z,100.00
2022-08-29T07:39:14.343Z,100.00
2022-08-29T07:41:46.782Z,100.00
2022-08-29T07:44:16.503Z,100.00
2022-08-29T07:46:45.746Z,100.00
2022-08-29T07:49:14.883Z,100.00
2022-08-29T07:51:49.264Z,100.00
2022-08-29T07:54:21.918Z,100.00
2022-08-29T07:56:52.520Z,100.00
2022-08-29T07:59:23.594Z,99.99
2022-08-29T08:01:53.950Z,100.00
2022-08-29T08:04:24.482Z,100.00
2022-08-29T08:06:54.622Z,97.62
2022-08-29T08:09:22.945Z,96.19
2022-08-29T08:11:51.336Z,92.38
2022-08-29T08:14:19.394Z,93.64
2022-08-29T08:16:47.949Z,94.85
2022-08-29T08:19:16.403Z,94.98
2022-08-29T08:21:50.163Z,93.44
2022-08-29T08:24:20.209Z,92.09
2022-08-29T08:26:49.882Z,93.92
2022-08-29T08:29:19.055Z,88.79
2022-08-29T08:31:49.868Z,88.77
2022-08-29T08:34:20.362Z,90.69
2022-08-29T08:36:50.700Z,90.75
2022-08-29T08:39:21.400Z,92.05
2022-08-29T08:41:52.957Z,89.97
2022-08-29T08:44:40.026Z,83.80
2022-08-29T08:47:08.343Z,89.28
2022-08-29T08:49:39.609Z,89.31
2022-08-29T08:52:11.653Z,88.50
2022-08-29T08:54:45.393Z,87.41
2022-08-29T08:57:13.472Z,88.13
2022-08-29T08:59:43.537Z,88.05
2022-08-29T09:02:14.728Z,89.28
2022-08-29T09:05:03.307Z,85.89
2022-08-29T09:07:43.103Z,87.98
2022-08-29T09:10:26.703Z,83.55
2022-08-29T09:13:01.031Z,80.95
2022-08-29T09:15:33.085Z,75.81
2022-08-29T09:18:04.722Z,71.40
2022-08-29T09:20:34.562Z,72.06
2022-08-29T09:23:06.017Z,72.71
2022-08-29T09:25:36.551Z,71.69
2022-08-29T09:28:06.867Z,74.74
2022-08-29T09:30:37.206Z,68.88
2022-08-29T09:33:10.019Z,72.31
2022-08-29T09:35:43.695Z,65.16
2022-08-29T09:38:25.956Z,69.00
2022-08-29T09:40:57.050Z,65.50
2022-08-29T09:43:28.028Z,58.68
2022-08-29T09:46:09.194Z,64.92
2022-08-29T09:48:39.656Z,67.98
2022-08-29T09:51:15.988Z,66.76
2022-08-29T09:53:44.466Z,63.35
2022-08-29T09:56:18.604Z,61.21
2022-08-29T09:58:47.482Z,59.16
2022-08-29T10:01:23.116Z,59.60
2022-08-29T10:04:03.533Z,54.32
2022-08-29T10:06:33.118Z,56.63
2022-08-29T10:09:03.827Z,59.05
2022-08-29T10:11:36.335Z,58.77
2022-08-29T10:14:06.854Z,55.90
2022-08-29T10:16:45.275Z,54.61
2022-08-29T10:19:14.518Z,51.84
2022-08-29T10:21:48.145Z,51.27
2022-08-29T10:24:25.190Z,53.90
2022-08-29T10:26:58.077Z,56.08
2022-08-29T10:29:32.157Z,53.05
2022-08-29T10:32:05.031Z,55.68
2022-08-29T10:34:42.462Z,50.99
2022-08-29T10:37:16.576Z,51.78
2022-08-29T10:39:47.928Z,51.49
2022-08-29T10:42:19.395Z,49.98
2022-08-29T10:44:54.325Z,53.91
2022-08-29T10:47:32.373Z,50.08
2022-08-29T10:50:16.910Z,46.66
2022-08-29T10:52:54.065Z,45.16
2022-08-29T10:55:32.498Z,48.03
2022-08-29T10:58:04.334Z,49.39
2022-08-29T11:00:36.797Z,47.08
2022-08-29T11:03:10.574Z,46.93
2022-08-29T11:05:40.901Z,49.00
2022-08-29T11:08:15.960Z,48.29
2022-08-29T11:10:45.608Z,47.24
2022-08-29T11:13:18.615Z,49.02
2022-08-29T11:15:49.773Z,48.42
2022-08-29T11:18:22.660Z,48.33
2022-08-29T11:20:53.407Z,48.43
2022-08-29T11:23:27.073Z,50.38
2022-08-29T11:25:55.338Z,49.66
2022-08-29T11:28:28.618Z,46.83
2022-08-29T11:30:59.452Z,48.14
2022-08-29T11:33:33.129Z,47.62
2022-08-29T11:36:15.936Z,45.20
2022-08-29T11:38:52.874Z,46.96
2022-08-29T11:41:28.517Z,45.31
2022-08-29T11:44:05.376Z,46.05
2022-08-29T11:46:43.143Z,46.98
2022-08-29T11:49:39.945Z,46.31
2022-08-29T11:52:25.732Z,46.87
2022-08-29T11:55:26.499Z,46.72
2022-08-29T11:58:05.773Z,47.96
2022-08-29T12:00:58.658Z,46.36
2022-08-29T12:03:55.125Z,47.13
2022-08-29T12:06:37.966Z,45.20
2022-08-29T12:09:23.394Z,48.81
2022-08-29T12:12:14.664Z,48.69
2022-08-29T12:14:43.580Z,50.48
2022-08-29T12:18:00.957Z,50.82
2022-08-29T12:20:40.730Z,49.66
2022-08-29T12:23:19.111Z,48.93
2022-08-29T12:26:03.827Z,50.29
2022-08-29T12:28:39.654Z,50.08
2022-08-29T12:31:13.404Z,53.27
2022-08-29T12:34:08.252Z,52.26
2022-08-29T12:36:52.006Z,51.25
2022-08-29T12:39:26.639Z,49.96
2022-08-29T12:42:23.145Z,50.77
2022-08-29T12:45:00.509Z,51.52
2022-08-29T12:47:33.686Z,51.86
2022-08-29T12:50:06.439Z,48.92
2022-08-29T12:52:36.944Z,49.34
2022-08-29T12:55:20.341Z,51.23
2022-08-29T12:57:49.660Z,49.05
2022-08-29T13:00:21.153Z,52.11
2022-08-29T13:03:00.809Z,47.80
2022-08-29T13:05:31.325Z,48.42
2022-08-29T13:08:00.799Z,51.95
2022-08-29T13:10:33.619Z,52.64
2022-08-29T13:13:06.825Z,53.11
2022-08-29T13:15:35.273Z,55.27
2022-08-29T13:18:03.355Z,55.12
2022-08-29T13:21:12.183Z,55.19
2022-08-29T13:23:47.777Z,56.63
2022-08-29T13:26:21.927Z,53.04
2022-08-29T13:28:52.069Z,53.65
2022-08-29T13:31:36.253Z,54.90
2022-08-29T13:34:19.518Z,55.18
2022-08-29T13:37:03.426Z,52.96
2022-08-29T13:39:43.550Z,52.21
2022-08-29T13:42:25.697Z,54.55
2022-08-29T13:45:02.783Z,52.23
2022-08-29T13:47:32.222Z,53.95
2022-08-29T13:50:05.620Z,54.39
2022-08-29T13:52:36.687Z,54.89
2022-08-29T13:55:05.585Z,57.08
2022-08-29T13:57:36.774Z,55.13
2022-08-29T14:00:08.310Z,53.96
2022-08-29T14:02:40.254Z,53.23
2022-08-29T14:05:16.014Z,54.84
2022-08-29T14:07:49.330Z,57.79
2022-08-29T14:10:18.239Z,57.61
2022-08-29T14:12:46.975Z,56.49
2022-08-29T14:15:17.961Z,57.32
2022-08-29T14:17:47.559Z,60.18
2022-08-29T14:20:17.775Z,58.09
2022-08-29T14:22:49.038Z,58.17
2022-08-29T14:25:19.611Z,58.46
2022-08-29T14:27:49.642Z,58.69
2022-08-29T14:30:19.329Z,57.11
2022-08-29T14:32:47.717Z,61.09
2022-08-29T14:35:26.412Z,58.35
2022-08-29T14:38:02.757Z,57.40
2022-08-29T14:40:32.254Z,57.10
2022-08-29T14:43:01.215Z,57.32
2022-08-29T14:45:30.914Z,59.62
2022-08-29T14:48:03.323Z,57.38
2022-08-29T14:50:31.875Z,56.77
2022-08-29T14:52:59.966Z,58.47
2022-08-29T14:55:29.818Z,57.85
2022-08-29T14:57:58.197Z,57.24
2022-08-29T15:00:30.519Z,56.50
2022-08-29T15:03:00.003Z,57.31
2022-08-29T15:05:28.279Z,56.28
2022-08-29T15:07:56.458Z,56.90
2022-08-29T15:10:25.310Z,56.75
2022-08-29T15:12:55.082Z,56.00
2022-08-29T15:15:29.254Z,55.82
2022-08-29T15:17:57.830Z,56.57
2022-08-29T15:20:46.131Z,56.45
2022-08-29T15:23:14.623Z,57.46
2022-08-29T15:25:51.999Z,58.36
2022-08-29T15:28:25.349Z,57.42
2022-08-29T15:30:54.254Z,57.24
2022-08-29T15:33:23.278Z,57.11
2022-08-29T15:35:51.552Z,59.44
2022-08-29T15:38:19.880Z,58.79
2022-08-29T15:40:49.670Z,60.20
2022-08-29T15:43:23.607Z,59.54
2022-08-29T15:45:59.000Z,60.18
2022-08-29T15:48:27.885Z,60.05
2022-08-29T15:50:56.019Z,60.62
2022-08-29T15:53:24.880Z,61.07
2022-08-29T15:55:56.144Z,61.52
2022-08-29T15:58:25.367Z,62.63
2022-08-29T16:00:57.266Z,63.44
2022-08-29T16:03:26.377Z,64.24
2022-08-29T16:05:54.912Z,65.04
2022-08-29T16:08:29.604Z,63.97
2022-08-29T16:10:59.406Z,64.53
2022-08-29T16:13:27.730Z,66.47
2022-08-29T16:15:58.424Z,68.01
2022-08-29T16:18:29.999Z,70.05
2022-08-29T16:21:00.553Z,66.88
2022-08-29T16:23:31.050Z,72.72
2022-08-29T16:25:59.133Z,72.86
2022-08-29T16:28:28.857Z,70.84
2022-08-29T16:30:58.374Z,68.00
2022-08-29T16:33:29.745Z,68.16
2022-08-29T16:36:04.097Z,68.54
2022-08-29T16:38:32.922Z,67.70
2022-08-29T16:41:07.809Z,68.13
2022-08-29T16:43:38.622Z,67.80
2022-08-29T16:46:11.849Z,66.55
2022-08-29T16:48:44.190Z,67.06
2022-08-29T16:51:13.571Z,66.92
2022-08-29T16:53:55.683Z,67.55
2022-08-29T16:56:29.322Z,67.65
2022-08-29T16:59:01.816Z,68.35
2022-08-29T17:01:32.859Z,69.60
2022-08-29T17:04:01.850Z,69.63
2022-08-29T17:06:32.190Z,72.03
2022-08-29T17:09:04.264Z,73.86
2022-08-29T17:11:34.269Z,69.61
2022-08-29T17:14:02.493Z,68.57
2022-08-29T17:16:32.376Z,67.60
2022-08-29T17:19:01.169Z,70.01
2022-08-29T17:21:29.558Z,73.78
2022-08-29T17:23:58.465Z,76.66
2022-08-29T17:26:26.664Z,71.19
2022-08-29T17:28:55.048Z,75.32
2022-08-29T17:31:23.656Z,77.79
2022-08-29T17:33:53.210Z,82.03
2022-08-29T17:36:21.336Z,80.80
2022-08-29T17:38:50.580Z,80.63
2022-08-29T17:41:22.150Z,83.45
2022-08-29T17:43:51.699Z,83.59
2022-08-29T17:46:21.899Z,86.33
2022-08-29T17:48:55.395Z,87.20
2022-08-29T17:51:25.627Z,88.37
2022-08-29T17:53:53.818Z,90.93
2022-08-29T17:56:31.371Z,90.88
2022-08-29T17:59:02.640Z,90.87
2022-08-29T18:01:35.966Z,90.99
2022-08-29T18:04:05.964Z,91.96
2022-08-29T18:06:34.911Z,93.23
2022-08-29T18:09:03.398Z,92.93
2022-08-29T18:11:38.679Z,94.47
2022-08-29T18:14:07.209Z,94.85
2022-08-29T18:16:35.789Z,94.20
2022-08-29T18:19:06.287Z,95.27
2022-08-29T18:21:34.400Z,95.97
2022-08-29T18:24:07.102Z,96.80
2022-08-29T18:26:43.521Z,97.46
2022-08-29T18:29:14.103Z,99.36
2022-08-29T18:31:45.931Z,100.00
2022-08-29T18:34:15.891Z,100.00
2022-08-29T18:36:44.807Z,100.00
2022-08-29T18:39:13.090Z,100.00
2022-08-29T18:41:41.500Z,100.00
2022-08-29T18:44:13.261Z,100.00
2022-08-29T18:46:47.940Z,100.00
2022-08-29T18:53:40.746Z,100.00
2022-08-29T18:56:09.423Z,100.00
2022-08-29T18:58:38.911Z,100.00
2022-08-29T19:01:13.755Z,100.00
2022-08-29T19:03:42.450Z,100.00
2022-08-29T19:06:11.314Z,100.00
2022-08-29T19:08:43.176Z,100.00
2022-08-29T19:11:12.874Z,100.00
2022-08-29T19:13:41.972Z,100.00
2022-08-29T19:16:14.818Z,100.00
2022-08-29T19:18:44.216Z,100.00
2022-08-29T19:21:16.201Z,100.00
2022-08-29T19:23:51.350Z,100.00
2022-08-29T19:26:23.212Z,100.00
2022-08-29T19:28:54.226Z,100.00
2022-08-29T19:31:27.780Z,100.00
2022-08-29T19:33:59.270Z,100.00
2022-08-29T19:36:28.297Z,100.00
2022-08-29T19:38:59.344Z,100.00
2022-08-29T19:41:32.020Z,100.00
2022-08-29T19:44:00.845Z,100.00
2022-08-29T19:46:32.462Z,100.00
2022-08-29T19:51:36.339Z,100.00
2022-08-29T19:54:08.706Z,100.00
2022-08-29T19:56:46.854Z,100.00
2022-08-29T19:59:16.187Z,100.00
2022-08-29T20:01:45.860Z,100.00
2022-08-29T20:04:14.657Z,100.00
2022-08-29T20:06:43.984Z,100.00
2022-08-29T20:09:15.806Z,100.00
2022-08-29T20:11:45.546Z,100.00
2022-08-29T20:14:14.434Z,100.00
2022-08-29T20:16:43.116Z,100.00
2022-08-29T20:19:12.259Z,100.00
2022-08-29T20:21:41.010Z,100.00
2022-08-29T20:24:10.604Z,100.00
2022-08-29T20:26:46.836Z,100.00
2022-08-29T20:29:17.245Z,100.00
2022-08-29T20:31:46.797Z,100.00
2022-08-29T20:34:15.301Z,100.00
2022-08-29T20:37:01.256Z,100.00
2022-08-29T20:39:29.868Z,100.00
2022-08-29T20:42:00.370Z,100.00
2022-08-29T20:44:33.738Z,100.00
2022-08-29T20:47:03.001Z,100.00
2022-08-29T20:49:31.471Z,100.00
2022-08-29T20:52:00.078Z,100.00
2022-08-29T20:54:28.391Z,100.00
2022-08-29T20:56:56.652Z,100.00
2022-08-29T20:59:26.981Z,100.00
2022-08-29T21:01:55.962Z,100.00
2022-08-29T21:04:41.737Z,100.00
2022-08-29T21:07:11.198Z,100.00
2022-08-29T21:09:41.834Z,100.00
2022-08-29T21:12:10.412Z,100.00
2022-08-29T21:14:40.677Z,100.00
2022-08-29T21:17:13.566Z,100.00
2022-08-29T21:19:45.000Z,100.00
2022-08-29T21:22:13.883Z,100.00
2022-08-29T21:24:44.201Z,100.00
2022-08-29T21:27:13.010Z,100.00
2022-08-29T21:29:46.959Z,100.00
2022-08-29T21:32:16.333Z,100.00
2022-08-29T21:34:44.839Z,100.00
2022-08-29T21:37:14.645Z,100.00
2022-08-29T21:39:45.394Z,100.00
2022-08-29T21:42:14.922Z,100.00
2022-08-29T21:44:45.149Z,100.00
2022-08-29T21:47:17.265Z,100.00
2022-08-29T21:49:48.580Z,100.00
2022-08-29T21:52:17.703Z,100.00
2022-08-29T21:54:45.963Z,100.00
2022-08-29T21:57:18.273Z,100.00
2022-08-29T21:59:50.784Z,100.00
2022-08-29T22:02:19.402Z,100.00
2022-08-29T22:04:48.033Z,100.00
2022-08-29T22:07:16.811Z,100.00
2022-08-29T22:09:46.223Z,100.00
2022-08-29T22:12:17.016Z,100.00
2022-08-29T22:15:02.396Z,100.00
2022-08-29T22:17:34.993Z,100.00
2022-08-29T22:20:05.000Z,100.00
2022-08-29T22:22:33.324Z,100.00
2022-08-29T22:25:01.834Z,100.00
2022-08-29T22:27:30.016Z,100.00
2022-08-29T22:29:59.634Z,100.00
2022-08-29T22:32:30.501Z,100.00
2022-08-29T22:35:08.457Z,100.00
2022-08-29T22:37:37.813Z,100.00
2022-08-29T22:40:14.362Z,100.00
2022-08-29T22:42:43.406Z,100.00
2022-08-29T22:45:14.244Z,100.00
2022-08-29T22:47:44.557Z,100.00
2022-08-29T22:50:16.810Z,100.00
2022-08-29T22:52:45.651Z,100.00
2022-08-29T22:57:49.664Z,100.00
2022-08-29T23:00:19.860Z,100.00
2022-08-29T23:02:48.336Z,100.00
2022-08-29T23:05:18.647Z,100.00
2022-08-29T23:07:46.899Z,100.00
2022-08-29T23:10:15.136Z,100.00
2022-08-29T23:12:43.482Z,100.00
2022-08-29T23:15:13.705Z,100.00
2022-08-29T23:17:42.463Z,100.00
2022-08-29T23:20:13.525Z,100.00
2022-08-29T23:22:43.819Z,100.00
2022-08-29T23:25:12.507Z,100.00
2022-08-29T23:27:41.698Z,100.00
2022-08-29T23:30:12.141Z,100.00
2022-08-29T23:32:40.664Z,100.00
2022-08-29T23:35:10.055Z,100.00
2022-08-29T23:37:39.668Z,100.00
2022-08-29T23:40:14.355Z,100.00
2022-08-29T23:42:43.613Z,100.00
2022-08-29T23:45:14.436Z,100.00
2022-08-29T23:47:43.376Z,100.00
2022-08-29T23:50:14.386Z,100.00
2022-08-29T23:52:43.799Z,100.00
2022-08-29T23:55:14.551Z,100.00
2022-08-29T23:57:42.886Z,100.00
